Time;durP1;ratioP1;P1;durP2;ratioP2;P2;SDS_P1;SDS_P2;PMS_P1;PMS_P2;Temp;Humidity;BMP_temperature;BMP_pressure;BME280_temperature;BME280_humidity;BME280_pressure;Samples;Min_cycle;Max_cycle;Signal;HPM_P1;HPM_P2
2022/03/28 00:00:36;;;;;;;12.97;6.47;;;6.90;99.90;;;;;;6226807;22;20019;-93
2022/03/28 00:03:02;;;;;;;16.05;7.50;;;6.90;99.90;;;;;;6226801;22;20011;-92
2022/03/28 00:05:28;;;;;;;12.32;6.57;;;6.90;99.90;;;;;;6226874;22;20015;-93
2022/03/28 00:07:54;;;;;;;12.27;7.27;;;6.90;99.90;;;;;;6226961;22;20576;-93
2022/03/28 00:10:19;;;;;;;13.03;7.00;;;6.90;99.90;;;;;;6226838;22;20019;-90
2022/03/28 00:12:45;;;;;;;13.27;6.90;;;6.80;99.90;;;;;;6227020;22;20015;-92
2022/03/28 00:15:11;;;;;;;12.60;6.83;;;6.90;99.90;;;;;;6226937;22;20026;-92
2022/03/28 00:17:38;;;;;;;11.63;6.17;;;6.90;99.90;;;;;;6226702;22;20746;-91
2022/03/28 00:20:11;;;;;;;12.57;6.20;;;6.90;99.90;;;;;;6226737;22;20016;-91
2022/03/28 00:22:38;;;;;;;9.32;6.03;;;6.90;99.90;;;;;;6226637;22;20027;-90
2022/03/28 00:25:06;;;;;;;8.57;5.13;;;6.90;99.90;;;;;;6226691;22;20033;-93
2022/03/28 00:27:32;;;;;;;9.23;5.60;;;6.90;99.90;;;;;;6226715;22;20047;-91
2022/03/28 00:29:57;;;;;;;10.80;5.27;;;6.80;99.90;;;;;;6226709;22;20019;-91
2022/03/28 00:32:23;;;;;;;7.80;5.83;;;6.80;99.90;;;;;;6226632;22;20341;-91
2022/03/28 00:34:49;;;;;;;9.00;5.23;;;6.90;99.90;;;;;;6226358;22;20043;-91
2022/03/28 00:37:15;;;;;;;11.97;6.00;;;6.70;99.90;;;;;;6226443;22;20396;-91
2022/03/28 00:39:41;;;;;;;9.17;5.60;;;6.80;99.90;;;;;;6226656;22;20011;-91
2022/03/28 00:42:06;;;;;;;8.87;5.20;;;6.70;99.90;;;;;;6226692;22;20024;-90
2022/03/28 00:44:33;;;;;;;8.73;5.47;;;6.70;99.90;;;;;;6226528;22;20188;-92
2022/03/28 00:46:59;;;;;;;8.68;5.15;;;6.70;99.90;;;;;;6226415;22;20022;-93
2022/03/28 00:49:25;;;;;;;8.57;5.40;;;6.70;99.90;;;;;;6226358;22;20094;-93
2022/03/28 00:51:52;;;;;;;11.45;5.57;;;6.70;99.90;;;;;;6240036;22;20054;-92
2022/03/28 00:54:19;;;;;;;10.32;5.45;;;6.60;99.90;;;;;;6256080;22;20016;-93
2022/03/28 00:56:48;;;;;;;;;;;6.60;99.90;;;;;;6257343;22;20015;-92
2022/03/28 00:59:14;;;;;;;9.73;5.90;;;6.60;99.90;;;;;;6256886;22;20009;-91
2022/03/28 01:06:54;;;;;;;12.82;6.70;;;6.50;99.90;;;;;;6308710;22;20470;-94
2022/03/28 01:09:20;;;;;;;11.50;6.75;;;6.60;99.90;;;;;;6256973;22;20347;-93
2022/03/28 01:11:48;;;;;;;11.37;7.07;;;6.50;99.90;;;;;;6256567;22;20051;-93
2022/03/28 01:14:17;;;;;;;14.15;6.47;;;6.50;99.90;;;;;;6256453;22;20015;-93
2022/03/28 01:19:45;;;;;;;11.65;6.60;;;6.50;99.90;;;;;;6283138;22;20064;-91
2022/03/28 01:22:11;;;;;;;11.50;6.47;;;6.50;99.90;;;;;;6256867;22;20428;-92
2022/03/28 01:24:36;;;;;;;10.83;6.50;;;6.50;99.90;;;;;;6256908;22;20011;-92
2022/03/28 01:27:04;;;;;;;10.47;6.77;;;6.50;99.90;;;;;;6256538;22;20092;-93
2022/03/28 01:29:29;;;;;;;10.90;7.38;;;6.50;99.90;;;;;;6256509;22;20019;-93
2022/03/28 01:31:55;;;;;;;10.67;7.03;;;6.50;99.90;;;;;;6256517;22;20015;-91
2022/03/28 01:34:21;;;;;;;11.17;7.17;;;6.50;99.90;;;;;;6256414;22;20012;-91
2022/03/28 01:36:48;;;;;;;11.02;7.40;;;6.50;99.90;;;;;;6256529;22;20019;-92
2022/03/28 01:39:15;;;;;;;16.38;6.82;;;6.50;99.90;;;;;;6256296;22;20148;-90
2022/03/28 01:41:41;;;;;;;12.25;6.78;;;6.60;99.90;;;;;;6256295;22;20459;-91
2022/03/28 01:44:07;;;;;;;12.03;5.57;;;6.50;99.90;;;;;;6256550;22;20015;-90
2022/03/28 01:46:47;;;;;;;10.05;5.38;;;6.50;99.90;;;;;;6256455;22;20098;-91
2022/03/28 01:49:15;;;;;;;10.02;5.10;;;6.40;99.90;;;;;;6256495;22;20322;-90
2022/03/28 01:51:40;;;;;;;9.82;6.03;;;6.40;99.90;;;;;;6256336;22;20019;-90
2022/03/28 01:54:06;;;;;;;11.43;5.50;;;6.40;99.90;;;;;;6256007;22;20073;-92
2022/03/28 01:56:36;;;;;;;13.47;6.10;;;6.30;99.90;;;;;;6256515;22;20463;-91
2022/03/28 01:59:03;;;;;;;13.13;6.38;;;6.30;99.90;;;;;;6256264;22;20467;-92
2022/03/28 02:01:29;;;;;;;11.98;6.57;;;6.30;99.90;;;;;;6256292;22;20030;-91
2022/03/28 02:03:54;;;;;;;12.50;6.60;;;6.30;99.90;;;;;;6256258;22;20004;-93
2022/03/28 02:06:20;;;;;;;13.93;6.87;;;6.30;99.90;;;;;;6251122;22;20078;-93
2022/03/28 02:08:46;;;;;;;12.07;6.97;;;6.20;99.90;;;;;;6251307;22;20026;-92
2022/03/28 02:11:12;;;;;;;13.80;8.00;;;6.20;99.90;;;;;;6251421;22;20306;-91
2022/03/28 02:13:38;;;;;;;16.00;6.93;;;6.20;99.90;;;;;;6251248;22;20027;-91
2022/03/28 02:16:04;;;;;;;14.13;7.00;;;6.20;99.90;;;;;;6251260;22;20027;-91
2022/03/28 02:18:30;;;;;;;13.50;7.00;;;6.10;99.90;;;;;;6251143;22;20018;-92
2022/03/28 02:20:55;;;;;;;12.40;5.97;;;6.20;99.90;;;;;;6251619;22;20043;-91
2022/03/28 02:23:22;;;;;;;9.33;5.13;;;6.20;99.90;;;;;;6251678;22;20015;-92
2022/03/28 02:25:48;;;;;;;11.60;5.95;;;6.10;99.90;;;;;;6252274;22;20015;-91
2022/03/28 02:28:14;;;;;;;10.83;6.13;;;6.20;99.90;;;;;;6252011;22;20389;-92
2022/03/28 02:30:40;;;;;;;11.67;5.67;;;6.20;99.90;;;;;;6253728;22;20068;-90
2022/03/28 02:33:06;;;;;;;10.93;5.15;;;6.20;99.90;;;;;;6270221;22;20012;-91
2022/03/28 02:35:33;;;;;;;13.48;5.57;;;6.20;99.90;;;;;;6257314;22;20022;-94
2022/03/28 02:38:01;;;;;;;10.93;5.20;;;6.20;99.90;;;;;;6253260;22;20065;-91
2022/03/28 02:40:31;;;;;;;12.23;5.15;;;6.20;99.90;;;;;;6253034;22;20020;-91
2022/03/28 02:42:58;;;;;;;9.25;5.03;;;6.20;99.90;;;;;;6250822;22;20015;-91
2022/03/28 02:45:31;;;;;;;10.15;5.53;;;6.20;99.90;;;;;;6250581;22;20456;-92
2022/03/28 02:47:59;;;;;;;10.75;5.22;;;6.20;99.90;;;;;;6250496;22;20016;-94
2022/03/28 02:50:28;;;;;;;29.35;5.57;;;6.20;99.90;;;;;;6250361;22;20519;-93
2022/03/28 02:52:54;;;;;;;18.77;5.53;;;6.30;99.90;;;;;;6250371;22;20016;-92
2022/03/28 02:55:19;;;;;;;10.03;5.60;;;6.30;99.90;;;;;;6250438;22;20038;-94
2022/03/28 02:57:45;;;;;;;15.50;6.37;;;6.30;99.90;;;;;;6251061;22;20012;-93
2022/03/28 03:00:11;;;;;;;8.90;5.23;;;6.30;99.90;;;;;;6250446;22;20034;-91
2022/03/28 03:02:38;;;;;;;10.40;5.23;;;6.30;99.90;;;;;;6250367;22;20216;-93
2022/03/28 03:05:06;;;;;;;10.95;5.13;;;6.20;99.90;;;;;;6250605;22;20258;-91
2022/03/28 03:07:33;;;;;;;8.02;3.58;;;6.20;99.90;;;;;;6225062;22;20437;-93
2022/03/28 03:09:59;;;;;;;9.07;3.90;;;6.20;99.90;;;;;;6250416;22;20030;-93
2022/03/28 03:12:25;;;;;;;7.27;3.83;;;6.20;99.90;;;;;;6250273;22;20045;-92
2022/03/28 03:14:51;;;;;;;7.17;3.30;;;6.20;99.90;;;;;;6225325;22;20088;-93
2022/03/28 03:17:17;;;;;;;8.55;4.15;;;6.10;99.90;;;;;;6250258;22;20020;-93
2022/03/28 03:19:44;;;;;;;10.82;4.00;;;6.10;99.90;;;;;;6250196;22;20033;-93
2022/03/28 03:22:11;;;;;;;5.97;3.22;;;6.10;99.90;;;;;;6250385;22;20449;-92
2022/03/28 03:24:37;;;;;;;5.35;2.63;;;6.10;99.90;;;;;;6250320;22;20016;-91
2022/03/28 03:27:03;;;;;;;6.40;2.50;;;6.10;99.90;;;;;;6250398;22;20124;-91
2022/03/28 03:29:29;;;;;;;5.97;2.45;;;6.10;99.90;;;;;;6250114;22;20011;-92
2022/03/28 03:31:55;;;;;;;5.33;2.30;;;6.10;99.90;;;;;;6250265;22;20070;-92
2022/03/28 03:34:24;;;;;;;5.10;2.28;;;6.00;99.90;;;;;;6250928;22;20383;-91
2022/03/28 03:36:49;;;;;;;5.83;2.20;;;6.00;99.90;;;;;;6250270;22;20023;-91
2022/03/28 03:39:15;;;;;;;4.73;1.80;;;5.90;99.90;;;;;;6250628;22;20015;-91
2022/03/28 03:41:41;;;;;;;3.40;1.33;;;5.90;99.90;;;;;;6250528;22;20068;-92
2022/03/28 03:44:07;;;;;;;2.90;1.30;;;5.90;99.90;;;;;;6250502;22;20091;-92
2022/03/28 03:46:33;;;;;;;4.23;1.57;;;5.80;99.90;;;;;;6250654;22;20452;-92
2022/03/28 03:48:58;;;;;;;3.90;1.40;;;5.80;99.90;;;;;;6250349;22;20015;-92
2022/03/28 03:51:25;;;;;;;3.33;1.30;;;5.80;99.90;;;;;;6250538;22;20066;-93
2022/03/28 03:53:50;;;;;;;3.90;1.40;;;5.70;99.90;;;;;;6250411;22;20062;-93
2022/03/28 03:56:17;;;;;;;4.37;1.93;;;5.70;99.90;;;;;;6250841;22;20016;-93
2022/03/28 03:58:43;;;;;;;5.18;1.67;;;5.70;99.90;;;;;;6250373;22;20020;-94
2022/03/28 04:01:09;;;;;;;5.03;2.27;;;5.70;99.90;;;;;;6250370;22;20030;-94
2022/03/28 04:03:38;;;;;;;5.38;2.70;;;5.60;99.90;;;;;;6250433;22;20069;-92
2022/03/28 04:06:05;;;;;;;6.68;2.53;;;5.70;99.90;;;;;;6255303;22;20015;-93
2022/03/28 04:08:31;;;;;;;5.10;2.60;;;5.70;99.90;;;;;;6255524;22;20432;-93
2022/03/28 04:10:57;;;;;;;8.77;3.20;;;5.70;99.90;;;;;;6255206;22;20019;-93
2022/03/28 04:13:23;;;;;;;6.67;3.30;;;5.60;99.90;;;;;;6255579;22;20011;-94
2022/03/28 04:15:49;;;;;;;6.87;3.73;;;5.60;99.90;;;;;;6230162;22;20023;-93
2022/03/28 04:18:15;;;;;;;5.93;3.30;;;5.60;99.90;;;;;;6255488;22;20012;-94
2022/03/28 04:20:41;;;;;;;7.37;4.37;;;5.70;99.90;;;;;;6255533;22;20134;-93
2022/03/28 04:23:07;;;;;;;6.40;3.90;;;5.70;99.90;;;;;;6255480;22;20019;-94
2022/03/28 04:25:33;;;;;;;7.33;4.10;;;5.60;99.90;;;;;;6255499;22;20086;-93
2022/03/28 04:27:59;;;;;;;7.80;4.80;;;5.70;99.90;;;;;;6255922;22;20020;-94
2022/03/28 04:30:25;;;;;;;8.85;5.13;;;5.70;99.90;;;;;;6257916;22;20019;-94
2022/03/28 04:32:51;;;;;;;10.33;5.00;;;5.70;99.90;;;;;;6257640;22;20025;-95
2022/03/28 04:35:17;;;;;;;11.43;5.67;;;5.80;99.90;;;;;;6257480;22;20076;-93
2022/03/28 04:37:44;;;;;;;9.40;5.82;;;5.80;99.90;;;;;;6257328;22;20023;-93
2022/03/28 04:40:36;;;;;;;10.77;6.95;;;5.80;99.90;;;;;;6257094;22;20015;-91
2022/03/28 04:43:03;;;;;;;10.98;6.70;;;5.80;99.90;;;;;;6257279;22;20019;-92
2022/03/28 04:45:30;;;;;;;12.27;6.90;;;5.80;99.90;;;;;;6256951;22;20026;-92
2022/03/28 04:47:56;;;;;;;10.18;6.95;;;5.80;99.90;;;;;;6257342;22;20019;-89
2022/03/28 04:50:22;;;;;;;12.55;7.63;;;5.80;99.90;;;;;;6257017;22;20340;-91
2022/03/28 04:52:48;;;;;;;11.03;7.43;;;5.80;99.90;;;;;;6257043;22;20019;-92
2022/03/28 04:59:22;;;;;;;13.02;7.45;;;5.90;99.90;;;;;;6310524;22;20033;-93
2022/03/28 05:01:48;;;;;;;11.20;7.35;;;5.80;99.90;;;;;;6257240;22;20026;-91
2022/03/28 05:04:16;;;;;;;14.33;7.80;;;5.80;99.90;;;;;;6256493;22;20046;-91
2022/03/28 05:06:59;;;;;;;12.15;7.50;;;5.80;99.90;;;;;;6257073;22;20015;-91
2022/03/28 05:09:53;;;;;;;12.00;6.97;;;5.80;99.90;;;;;;6257465;22;20019;-91
2022/03/28 05:12:47;;;;;;;13.82;7.00;;;5.80;99.90;;;;;;6257684;22;20402;-92
2022/03/28 05:15:13;;;;;;;13.32;7.85;;;5.80;99.90;;;;;;6257868;22;20015;-91
2022/03/28 05:17:40;;;;;;;14.27;8.23;;;5.80;99.90;;;;;;6282984;22;20098;-90
2022/03/28 05:20:08;;;;;;;11.93;7.85;;;5.80;99.90;;;;;;6313128;22;20011;-89
2022/03/28 05:22:34;;;;;;;12.52;7.85;;;5.80;99.90;;;;;;6284628;22;20015;-91
2022/03/28 05:25:18;;;;;;;12.93;7.97;;;5.70;99.90;;;;;;6282759;22;20060;-87
2022/03/28 05:27:45;;;;;;;13.23;8.20;;;5.80;99.90;;;;;;6255899;22;20019;-89
2022/03/28 05:30:15;;;;;;;14.45;8.63;;;5.80;99.90;;;;;;6255769;22;20010;-86
2022/03/28 05:32:42;;;;;;;14.05;9.02;;;5.80;99.90;;;;;;6255658;22;20467;-89
2022/03/28 05:35:08;;;;;;;;;;;5.80;99.90;;;;;;6309097;22;20023;-86
2022/03/28 05:37:35;;;;;;;16.08;8.77;;;5.80;99.90;;;;;;6255812;22;19914;-91
2022/03/28 05:40:02;;;;;;;11.80;8.85;;;5.70;99.90;;;;;;6255464;22;20336;-90
2022/03/28 05:42:28;;;;;;;12.52;8.43;;;5.70;99.90;;;;;;6254849;22;20383;-89
2022/03/28 05:44:54;;;;;;;10.80;8.07;;;5.80;99.90;;;;;;6253627;22;20057;-88
2022/03/28 05:47:19;;;;;;;13.03;8.23;;;5.80;99.90;;;;;;6255457;22;20015;-87
2022/03/28 05:49:45;;;;;;;20.87;14.73;;;5.80;99.90;;;;;;6286865;22;20023;-89
2022/03/28 05:52:11;;;;;;;15.13;9.50;;;5.70;99.90;;;;;;6254860;22;20023;-89
2022/03/28 05:54:37;;;;;;;14.03;9.33;;;5.70;99.90;;;;;;6253935;22;20101;-89
2022/03/28 05:57:03;;;;;;;14.93;10.60;;;5.70;99.90;;;;;;6253736;22;20072;-90
2022/03/28 05:59:28;;;;;;;15.90;10.13;;;5.80;99.90;;;;;;6255156;22;20054;-91
2022/03/28 06:01:54;;;;;;;14.30;10.10;;;5.80;99.90;;;;;;6256009;22;20050;-90
2022/03/28 06:04:20;;;;;;;15.00;10.57;;;5.80;99.90;;;;;;6308378;22;20019;-88
2022/03/28 06:06:47;;;;;;;17.58;11.30;;;5.90;99.90;;;;;;6255819;22;20090;-86
2022/03/28 06:09:13;;;;;;;18.90;12.38;;;5.90;99.90;;;;;;6281715;22;20023;-91
2022/03/28 06:11:38;;;;;;;14.13;10.57;;;5.90;99.90;;;;;;6255810;22;20019;-92
2022/03/28 06:14:04;;;;;;;14.63;10.27;;;5.90;99.90;;;;;;6255856;22;20047;-91
2022/03/28 06:16:30;;;;;;;18.97;11.90;;;5.90;99.90;;;;;;6255823;22;20436;-92
2022/03/28 06:18:56;;;;;;;14.63;10.25;;;5.90;99.90;;;;;;6256442;22;20019;-89
2022/03/28 06:21:30;;;;;;;14.70;10.55;;;5.90;99.90;;;;;;6255939;22;20016;-90
2022/03/28 06:23:59;;;;;;;16.48;11.23;;;5.90;99.90;;;;;;6256741;22;20071;-90
2022/03/28 06:26:53;;;;;;;19.60;13.85;;;5.90;99.90;;;;;;6256064;22;20019;-90
2022/03/28 06:29:21;;;;;;;20.92;14.25;;;6.00;99.90;;;;;;6255718;22;20344;-90
2022/03/28 06:34:28;;;;;;;25.27;15.35;;;6.00;99.90;;;;;;6276529;22;20077;-92
2022/03/28 06:36:57;;;;;;;25.17;16.15;;;6.00;99.90;;;;;;6250821;22;20019;-92
2022/03/28 06:39:23;;;;;;;23.33;15.90;;;6.00;99.90;;;;;;6250621;22;20027;-90
2022/03/28 06:41:48;;;;;;;21.52;14.77;;;6.00;99.90;;;;;;6250640;22;20094;-90
2022/03/28 06:49:25;;;;;;;27.65;17.02;;;6.10;99.90;;;;;;6277037;22;20326;-90
2022/03/28 06:51:51;;;;;;;24.83;17.67;;;6.20;99.90;;;;;;6224354;22;20057;-91
2022/03/28 06:54:19;;;;;;;25.73;17.33;;;6.20;99.90;;;;;;6250492;22;20098;-90
2022/03/28 06:56:46;;;;;;;22.27;16.38;;;6.20;99.90;;;;;;6250449;22;20051;-88
2022/03/28 06:59:12;;;;;;;23.55;15.73;;;6.20;99.90;;;;;;6249996;22;20333;-90
2022/03/28 07:01:39;;;;;;;25.00;17.05;;;6.20;99.90;;;;;;6250092;22;20052;-90
2022/03/28 07:04:05;;;;;;;25.65;18.88;;;6.20;99.90;;;;;;6250201;22;20315;-90
2022/03/28 07:06:32;;;;;;;25.42;18.48;;;6.20;99.90;;;;;;6249886;22;20018;-91
2022/03/28 07:09:04;;;;;;;25.52;17.13;;;6.30;99.90;;;;;;6249974;22;20015;-91
2022/03/28 07:11:31;;;;;;;33.55;22.15;;;6.30;99.90;;;;;;6249429;22;20022;-92
2022/03/28 07:13:59;;;;;;;28.85;19.30;;;6.30;99.90;;;;;;6250083;22;20018;-91
2022/03/28 07:16:25;;;;;;;29.73;20.45;;;6.30;99.90;;;;;;6249661;22;20012;-89
2022/03/28 07:18:53;;;;;;;28.20;20.07;;;6.40;99.90;;;;;;6249655;22;20012;-89
2022/03/28 07:21:19;;;;;;;27.40;18.95;;;6.30;99.90;;;;;;6250004;22;20023;-91
2022/03/28 07:23:45;;;;;;;26.53;19.03;;;6.30;99.90;;;;;;6250200;22;20016;-93
2022/03/28 07:26:11;;;;;;;24.93;17.93;;;6.40;99.90;;;;;;6250160;22;20016;-92
2022/03/28 07:28:39;;;;;;;27.77;18.13;;;6.40;99.90;;;;;;6250178;22;20214;-93
2022/03/28 07:31:08;;;;;;;26.90;16.65;;;6.50;99.90;;;;;;6249941;22;20058;-90
2022/03/28 07:33:44;;;;;;;24.55;16.85;;;6.50;99.90;;;;;;6275704;22;20018;-90
2022/03/28 07:36:10;;;;;;;24.15;17.45;;;6.50;99.90;;;;;;6275318;22;20404;-91
2022/03/28 07:38:36;;;;;;;25.95;18.38;;;6.50;99.90;;;;;;6249823;22;20337;-92
2022/03/28 07:41:03;;;;;;;26.97;18.80;;;6.60;99.90;;;;;;6250173;22;20075;-91
2022/03/28 07:43:29;;;;;;;22.40;16.88;;;6.60;99.90;;;;;;6275573;22;20051;-93
2022/03/28 07:45:55;;;;;;;23.60;16.43;;;6.60;99.90;;;;;;6250059;22;20020;-88
2022/03/28 07:48:24;;;;;;;19.70;13.70;;;6.70;99.90;;;;;;6246625;22;20047;-89
2022/03/28 07:50:50;;;;;;;22.55;14.13;;;6.60;99.90;;;;;;6246404;22;20019;-91
2022/03/28 07:53:16;;;;;;;21.10;15.52;;;6.60;99.90;;;;;;6272795;22;20069;-92
2022/03/28 07:55:42;;;;;;;21.38;13.95;;;6.60;99.90;;;;;;6273543;22;20020;-93
2022/03/28 07:58:09;;;;;;;20.95;14.25;;;6.70;99.90;;;;;;6224540;22;20018;-89
2022/03/28 08:00:37;;;;;;;20.25;14.30;;;6.70;99.90;;;;;;6275373;22;20153;-89
2022/03/28 08:03:04;;;;;;;23.55;15.98;;;6.60;99.90;;;;;;6250413;22;20027;-89
2022/03/28 08:05:30;;;;;;;21.00;15.10;;;6.60;99.90;;;;;;6277211;22;20341;-89
2022/03/28 08:07:56;;;;;;;25.25;15.95;;;6.60;99.90;;;;;;6251589;22;20413;-90
2022/03/28 08:10:23;;;;;;;24.90;16.30;;;6.70;99.90;;;;;;6251476;22;20023;-90
2022/03/28 08:12:49;;;;;;;;;;;6.70;99.90;;;;;;6251789;22;20020;-91
2022/03/28 08:15:16;;;;;;;22.17;15.20;;;6.70;99.90;;;;;;6252331;22;19922;-90
2022/03/28 08:17:42;;;;;;;23.05;15.10;;;6.70;99.90;;;;;;6250138;22;20012;-92
2022/03/28 08:20:10;;;;;;;21.40;14.60;;;6.70;99.90;;;;;;6251635;22;20016;-93
2022/03/28 08:22:37;;;;;;;23.13;15.07;;;6.70;99.90;;;;;;6277002;22;20014;-92
2022/03/28 08:25:04;;;;;;;20.08;14.32;;;6.70;99.90;;;;;;6226416;22;20030;-92
2022/03/28 08:27:31;;;;;;;24.30;14.57;;;6.70;99.90;;;;;;6251425;22;20086;-88
2022/03/28 08:29:57;;;;;;;;;;;6.70;99.90;;;;;;6251861;22;20063;-92
2022/03/28 08:32:23;;;;;;;21.08;14.48;;;6.60;99.90;;;;;;6251271;22;19961;-90
2022/03/28 08:34:50;;;;;;;25.03;15.47;;;6.70;99.90;;;;;;6251459;22;20054;-92
2022/03/28 08:37:16;;;;;;;22.10;15.23;;;6.70;99.90;;;;;;6276594;22;20051;-93
2022/03/28 08:39:49;;;;;;;21.90;15.00;;;6.80;99.90;;;;;;6276951;22;20015;-93
2022/03/28 08:42:16;;;;;;;23.30;16.33;;;6.80;99.90;;;;;;6276997;22;20016;-88
2022/03/28 08:44:42;;;;;;;;;;;6.90;99.90;;;;;;6226856;22;20039;-92
2022/03/28 08:47:14;;;;;;;22.83;15.93;;;6.90;99.90;;;;;;6276836;22;20074;-89
2022/03/28 08:49:40;;;;;;;23.70;16.17;;;6.90;99.90;;;;;;6251089;22;20016;-90
2022/03/28 08:52:06;;;;;;;22.53;16.67;;;6.90;99.90;;;;;;6225837;22;20019;-93
2022/03/28 08:54:32;;;;;;;27.83;16.80;;;7.00;99.90;;;;;;6226184;22;20329;-93
2022/03/28 08:56:58;;;;;;;22.08;16.13;;;7.00;99.90;;;;;;6251197;22;20077;-93
2022/03/28 08:59:24;;;;;;;26.47;16.27;;;7.10;99.90;;;;;;6251501;22;20015;-89
2022/03/28 09:01:50;;;;;;;25.33;16.27;;;7.10;99.90;;;;;;6251768;22;20016;-90
2022/03/28 09:04:16;;;;;;;27.00;15.55;;;7.20;99.90;;;;;;6251546;22;20008;-93
2022/03/28 09:06:45;;;;;;;24.23;16.40;;;7.20;99.90;;;;;;6277028;22;20027;-92
2022/03/28 09:09:32;;;;;;;22.08;15.63;;;7.20;99.90;;;;;;6251079;22;20015;-92
2022/03/28 09:12:05;;;;;;;25.23;16.08;;;7.20;99.90;;;;;;6276743;22;20388;-92
2022/03/28 09:14:32;;;;;;;21.00;15.07;;;7.10;99.90;;;;;;6250565;22;20012;-90
2022/03/28 09:17:05;;;;;;;21.20;15.40;;;7.10;99.90;;;;;;6251054;22;20077;-93
2022/03/28 09:19:53;;;;;;;22.85;16.23;;;7.20;99.90;;;;;;6251078;22;20015;-89
2022/03/28 09:22:29;;;;;;;23.38;15.52;;;7.20;99.90;;;;;;6251105;22;20016;-88
2022/03/28 09:25:19;;;;;;;22.48;15.32;;;7.20;99.90;;;;;;6251016;22;20026;-91
2022/03/28 09:27:47;;;;;;;23.13;15.13;;;7.20;99.90;;;;;;6251401;22;20448;-90
2022/03/28 09:30:17;;;;;;;20.05;14.60;;;7.20;99.90;;;;;;6250431;22;20011;-91
2022/03/28 09:32:52;;;;;;;23.20;14.60;;;7.20;99.90;;;;;;6250901;22;20019;-90
2022/03/28 09:36:00;;;;;;;19.98;15.07;;;7.30;99.90;;;;;;6250742;22;20035;-91
2022/03/28 09:38:55;;;;;;;22.85;15.27;;;7.30;99.90;;;;;;6250659;22;20026;-91
2022/03/28 09:41:24;;;;;;;20.70;14.52;;;7.30;99.90;;;;;;6251212;22;20460;-91
2022/03/28 09:43:56;;;;;;;24.13;15.63;;;7.30;99.90;;;;;;6250642;22;20024;-90
2022/03/28 09:46:28;;;;;;;23.05;16.30;;;7.40;99.90;;;;;;6250912;22;20016;-90
2022/03/28 09:48:57;;;;;;;23.42;15.77;;;7.40;99.90;;;;;;6251057;22;20023;-92
2022/03/28 09:51:27;;;;;;;21.27;15.40;;;7.40;99.90;;;;;;6250791;22;20031;-91
2022/03/28 09:53:53;;;;;;;21.35;14.88;;;7.40;99.90;;;;;;6251117;22;20149;-90
2022/03/28 09:56:19;;;;;;;23.60;16.58;;;7.50;99.90;;;;;;6250729;22;20016;-90
2022/03/28 09:58:56;;;;;;;23.17;16.60;;;7.50;99.90;;;;;;6250992;22;20018;-91
2022/03/28 10:01:22;;;;;;;21.15;15.00;;;7.50;99.90;;;;;;6251091;22;20475;-91
2022/03/28 10:03:50;;;;;;;21.77;16.50;;;7.50;99.90;;;;;;6251153;22;20015;-91
2022/03/28 10:06:17;;;;;;;23.10;16.20;;;7.60;99.90;;;;;;6250809;22;20054;-91
2022/03/28 10:11:18;;;;;;;22.77;15.70;;;7.60;99.90;;;;;;6277181;22;20030;-92
2022/03/28 10:13:44;;;;;;;22.63;16.33;;;7.70;99.90;;;;;;6250588;22;20015;-91
2022/03/28 10:16:10;;;;;;;21.67;16.00;;;7.70;99.90;;;;;;6250433;22;20457;-90
2022/03/28 10:18:38;;;;;;;25.77;17.53;;;7.70;99.90;;;;;;6225487;22;20064;-93
2022/03/28 10:21:25;;;;;;;43.55;39.05;;;7.80;99.90;;;;;;6276104;22;20082;-91
2022/03/28 10:24:14;;;;;;;19.37;15.17;;;7.80;99.90;;;;;;6276303;22;20547;-92
2022/03/28 10:26:45;;;;;;;22.98;15.68;;;7.90;99.90;;;;;;6225287;22;20020;-91
2022/03/28 10:29:17;;;;;;;21.13;16.00;;;7.90;99.90;;;;;;6250688;22;20011;-91
2022/03/28 10:31:52;;;;;;;20.88;15.52;;;7.90;99.90;;;;;;6250480;22;20027;-90
2022/03/28 10:34:44;;;;;;;21.42;15.02;;;8.00;99.90;;;;;;6275902;22;20349;-90
2022/03/28 10:37:34;;;;;;;22.58;15.90;;;8.00;99.90;;;;;;6225249;22;20020;-93
2022/03/28 10:40:19;;;;;;;21.75;15.43;;;8.10;99.90;;;;;;6249854;22;20015;-91
2022/03/28 10:43:03;;;;;;;20.75;15.75;;;8.10;99.90;;;;;;6250459;22;20397;-91
2022/03/28 10:46:00;;;;;;;20.23;15.40;;;8.20;99.90;;;;;;6250342;22;20023;-90
2022/03/28 10:48:54;;;;;;;18.85;13.85;;;8.20;99.90;;;;;;6265892;22;20019;-92
2022/03/28 10:51:46;;;;;;;19.38;15.05;;;8.20;99.90;;;;;;6250120;22;20093;-91
2022/03/28 10:55:10;;;;;;;;;;;;;;;;;;;;;
2022/03/28 10:57:40;;;;;;;19.90;14.18;;;8.20;99.90;;;;;;6267901;22;20054;-92
2022/03/28 11:00:09;;;;;;;19.77;14.82;;;8.30;99.90;;;;;;6250524;22;20015;-93
2022/03/28 11:02:36;;;;;;;18.77;13.93;;;8.30;99.90;;;;;;6250057;22;20050;-90
2022/03/28 11:05:07;;;;;;;18.23;14.10;;;8.30;99.90;;;;;;6249870;22;20023;-89
2022/03/28 11:07:33;;;;;;;20.77;15.25;;;8.30;99.90;;;;;;6250850;22;20097;-94
2022/03/28 11:10:11;;;;;;;21.00;15.83;;;8.30;99.90;;;;;;6249478;22;20250;-90
2022/03/28 11:12:41;;;;;;;20.88;15.93;;;8.40;99.90;;;;;;6273979;22;20023;-89
2022/03/28 11:15:24;;;;;;;19.65;14.90;;;8.50;99.90;;;;;;6250143;22;20384;-93
2022/03/28 11:17:57;;;;;;;19.48;14.75;;;8.50;99.90;;;;;;6224608;22;20473;-90
2022/03/28 11:20:28;;;;;;;22.88;15.63;;;8.60;99.90;;;;;;6250148;22;20012;-93
2022/03/28 11:23:10;;;;;;;22.05;15.18;;;8.60;99.90;;;;;;6251350;22;20019;-92
2022/03/28 11:25:44;;;;;;;20.67;15.83;;;8.70;99.90;;;;;;6249826;22;20015;-92
2022/03/28 11:28:16;;;;;;;18.63;14.90;;;8.70;99.90;;;;;;6250026;22;20016;-93
2022/03/28 11:30:45;;;;;;;20.17;14.95;;;8.70;99.90;;;;;;6249721;22;20011;-93
2022/03/28 11:33:17;;;;;;;21.48;15.57;;;8.70;99.90;;;;;;6224893;22;20075;-92
2022/03/28 11:36:09;;;;;;;19.77;15.15;;;8.80;99.90;;;;;;6252370;22;20007;-95
2022/03/28 11:38:52;;;;;;;23.20;16.17;;;8.90;99.90;;;;;;6251503;22;20065;-93
2022/03/28 11:41:20;;;;;;;20.83;14.77;;;8.90;99.90;;;;;;6252118;22;20020;-94
2022/03/28 11:43:51;;;;;;;18.60;14.48;;;9.00;99.90;;;;;;6252089;22;20016;-93
2022/03/28 11:46:27;;;;;;;19.33;15.20;;;9.00;99.90;;;;;;6252270;22;20020;-95
2022/03/28 11:49:06;;;;;;;22.55;15.52;;;9.00;99.90;;;;;;6252439;22;20016;-95
2022/03/28 11:51:52;;;;;;;20.00;15.40;;;9.00;99.90;;;;;;6251540;22;20016;-94
2022/03/28 11:54:24;;;;;;;21.40;15.73;;;9.00;99.90;;;;;;6251958;22;20445;-95
2022/03/28 11:59:39;;;;;;;21.00;15.13;;;9.10;99.90;;;;;;6277605;22;20491;-93
2022/03/28 12:02:08;;;;;;;20.83;14.40;;;9.20;99.90;;;;;;6252096;22;20015;-91
2022/03/28 12:04:46;;;;;;;20.63;14.88;;;9.20;99.90;;;;;;6251645;22;20137;-91
2022/03/28 12:07:13;;;;;;;20.83;14.98;;;9.30;99.90;;;;;;6251694;22;20016;-90
2022/03/28 12:09:41;;;;;;;20.83;14.70;;;9.40;99.90;;;;;;6252195;22;20407;-92
2022/03/28 12:12:09;;;;;;;20.92;15.13;;;9.40;99.90;;;;;;6251254;22;20026;-91
2022/03/28 12:14:34;;;;;;;22.13;15.10;;;9.40;99.90;;;;;;6252000;22;20038;-92
2022/03/28 12:17:00;;;;;;;21.87;16.00;;;9.40;99.90;;;;;;6251781;22;20070;-94
2022/03/28 12:20:13;;;;;;;20.87;15.50;;;9.40;99.90;;;;;;6251843;22;20045;-94
2022/03/28 12:22:44;;;;;;;20.10;14.30;;;9.30;99.90;;;;;;6251826;22;20015;-91
2022/03/28 12:25:26;;;;;;;22.40;15.68;;;9.30;99.90;;;;;;6251634;22;20047;-92
2022/03/28 12:28:00;;;;;;;18.63;14.07;;;9.20;99.90;;;;;;6251528;22;20018;-91
2022/03/28 12:30:35;;;;;;;21.15;15.48;;;9.30;99.90;;;;;;6251562;22;20026;-93
2022/03/28 12:33:14;;;;;;;20.17;14.45;;;9.30;99.90;;;;;;6251402;22;20020;-95
2022/03/28 12:35:51;;;;;;;19.70;14.77;;;9.30;99.90;;;;;;6251419;22;20016;-94
2022/03/28 12:38:23;;;;;;;18.80;14.40;;;9.30;99.90;;;;;;6251570;22;20099;-93
2022/03/28 12:40:55;;;;;;;20.65;15.93;;;9.30;99.90;;;;;;6251561;22;20012;-94
2022/03/28 12:43:25;;;;;;;20.23;13.88;;;9.30;99.90;;;;;;6251367;22;20034;-94
2022/03/28 12:45:59;;;;;;;19.88;14.25;;;9.40;99.90;;;;;;6251554;22;20012;-95
2022/03/28 12:48:41;;;;;;;19.30;14.40;;;9.40;99.90;;;;;;6251338;22;20055;-93
2022/03/28 12:51:08;;;;;;;20.13;12.18;;;9.40;99.90;;;;;;6251222;22;20240;-91
2022/03/28 12:53:35;;;;;;;;;;;9.40;99.90;;;;;;6226042;22;20512;-91
2022/03/28 12:56:22;;;;;;;19.27;13.35;;;9.40;99.90;;;;;;6251060;22;20325;-88
2022/03/28 12:58:52;;;;;;;18.15;12.13;;;9.50;99.90;;;;;;6250269;22;20023;-87
2022/03/28 13:01:26;;;;;;;15.68;12.05;;;9.50;99.90;;;;;;6276149;22;20065;-87
2022/03/28 13:04:09;;;;;;;19.80;12.38;;;9.50;99.90;;;;;;6250267;22;20311;-88
2022/03/28 13:06:39;;;;;;;17.23;11.45;;;9.50;99.90;;;;;;6250192;22;20039;-88
2022/03/28 13:18:04;;;;;;;15.85;10.80;;;9.60;99.90;;;;;;6288344;22;20023;-89
2022/03/28 13:20:42;;;;;;;16.45;11.15;;;9.60;99.90;;;;;;6253590;22;20027;-89
2022/03/28 13:23:25;;;;;;;15.77;11.13;;;9.60;99.90;;;;;;6250870;22;20452;-91
2022/03/28 13:26:35;;;;;;;19.20;12.05;;;9.60;99.90;;;;;;6225986;22;20102;-93
2022/03/28 13:29:23;;;;;;;14.50;11.30;;;9.60;99.90;;;;;;6197516;22;20016;-93
2022/03/28 13:31:49;;;;;;;16.52;11.95;;;9.70;99.90;;;;;;6226046;22;20015;-92
2022/03/28 13:34:15;;;;;;;16.17;11.70;;;9.70;99.90;;;;;;6226125;22;20314;-92